sensor_id;sensor_type;location;lat;lon;timestamp;P1;durP1;ratioP1;P2;durP2;ratioP2
22780;SDS011;11557;50.884;4.322;2022-08-16T00:00:17;20.52;;;13.25;;
22780;SDS011;11557;50.884;4.322;2022-08-16T00:02:44;16.75;;;12.98;;
22780;SDS011;11557;50.884;4.322;2022-08-16T00:05:11;16.83;;;12.65;;
22780;SDS011;11557;50.884;4.322;2022-08-16T00:07:39;16.67;;;13.27;;
22780;SDS011;11557;50.884;4.322;2022-08-16T00:10:07;17.73;;;12.35;;
22780;SDS011;11557;50.884;4.322;2022-08-16T00:12:36;15.68;;;12.68;;
22780;SDS011;11557;50.884;4.322;2022-08-16T00:15:10;14.55;;;11.73;;
22780;SDS011;11557;50.884;4.322;2022-08-16T00:17:38;16.88;;;11.95;;
22780;SDS011;11557;50.884;4.322;2022-08-16T00:20:04;13.60;;;12.27;;
22780;SDS011;11557;50.884;4.322;2022-08-16T00:22:33;15.95;;;11.70;;
22780;SDS011;11557;50.884;4.322;2022-08-16T00:25:01;17.08;;;12.35;;
22780;SDS011;11557;50.884;4.322;2022-08-16T00:27:28;15.60;;;12.02;;
22780;SDS011;11557;50.884;4.322;2022-08-16T00:29:53;21.17;;;12.75;;
22780;SDS011;11557;50.884;4.322;2022-08-16T00:32:19;15.52;;;12.63;;
22780;SDS011;11557;50.884;4.322;2022-08-16T00:34:45;17.77;;;12.93;;
22780;SDS011;11557;50.884;4.322;2022-08-16T00:37:14;17.38;;;12.93;;
22780;SDS011;11557;50.884;4.322;2022-08-16T00:39:40;14.82;;;11.77;;
22780;SDS011;11557;50.884;4.322;2022-08-16T00:42:06;14.95;;;11.90;;
22780;SDS011;11557;50.884;4.322;2022-08-16T00:44:31;17.75;;;11.65;;
22780;SDS011;11557;50.884;4.322;2022-08-16T00:47:01;17.25;;;12.65;;
22780;SDS011;11557;50.884;4.322;2022-08-16T00:49:30;15.82;;;12.23;;
22780;SDS011;11557;50.884;4.322;2022-08-16T00:51:57;17.60;;;12.75;;
22780;SDS011;11557;50.884;4.322;2022-08-16T00:54:24;14.60;;;13.02;;
22780;SDS011;11557;50.884;4.322;2022-08-16T00:56:53;16.17;;;12.80;;
22780;SDS011;11557;50.884;4.322;2022-08-16T00:59:22;13.65;;;11.98;;
22780;SDS011;11557;50.884;4.322;2022-08-16T01:01:50;16.13;;;12.85;;
22780;SDS011;11557;50.884;4.322;2022-08-16T01:04:18;15.27;;;13.18;;
22780;SDS011;11557;50.884;4.322;2022-08-16T01:06:46;15.93;;;12.98;;
22780;SDS011;11557;50.884;4.322;2022-08-16T01:09:13;15.23;;;13.10;;
22780;SDS011;11557;50.884;4.322;2022-08-16T01:11:39;18.83;;;13.07;;
22780;SDS011;11557;50.884;4.322;2022-08-16T01:14:27;16.83;;;13.02;;
22780;SDS011;11557;50.884;4.322;2022-08-16T01:16:58;18.13;;;12.80;;
22780;SDS011;11557;50.884;4.322;2022-08-16T01:19:33;14.57;;;12.23;;
22780;SDS011;11557;50.884;4.322;2022-08-16T01:22:04;20.33;;;12.65;;
22780;SDS011;11557;50.884;4.322;2022-08-16T01:24:57;15.82;;;12.73;;
22780;SDS011;11557;50.884;4.322;2022-08-16T01:27:28;18.20;;;12.07;;
22780;SDS011;11557;50.884;4.322;2022-08-16T01:33:05;17.52;;;12.68;;
22780;SDS011;11557;50.884;4.322;2022-08-16T01:38:14;13.30;;;11.65;;
22780;SDS011;11557;50.884;4.322;2022-08-16T01:41:14;18.55;;;11.75;;
22780;SDS011;11557;50.884;4.322;2022-08-16T01:43:43;16.90;;;11.90;;
22780;SDS011;11557;50.884;4.322;2022-08-16T01:48:55;13.30;;;11.77;;
22780;SDS011;11557;50.884;4.322;2022-08-16T01:51:24;18.02;;;12.25;;
22780;SDS011;11557;50.884;4.322;2022-08-16T01:53:51;16.85;;;12.35;;
22780;SDS011;11557;50.884;4.322;2022-08-16T01:56:17;14.98;;;12.18;;
22780;SDS011;11557;50.884;4.322;2022-08-16T01:58:44;15.73;;;12.32;;
22780;SDS011;11557;50.884;4.322;2022-08-16T02:01:10;13.40;;;11.95;;
22780;SDS011;11557;50.884;4.322;2022-08-16T02:03:36;13.65;;;12.20;;
22780;SDS011;11557;50.884;4.322;2022-08-16T02:06:03;18.50;;;12.88;;
22780;SDS011;11557;50.884;4.322;2022-08-16T02:08:32;15.95;;;12.50;;
22780;SDS011;11557;50.884;4.322;2022-08-16T02:10:58;14.82;;;11.65;;
22780;SDS011;11557;50.884;4.322;2022-08-16T02:13:25;14.55;;;11.77;;
22780;SDS011;11557;50.884;4.322;2022-08-16T02:15:50;14.95;;;11.18;;
22780;SDS011;11557;50.884;4.322;2022-08-16T02:18:17;19.00;;;12.70;;
22780;SDS011;11557;50.884;4.322;2022-08-16T02:20:44;14.57;;;12.23;;
22780;SDS011;11557;50.884;4.322;2022-08-16T02:23:13;12.20;;;10.98;;
22780;SDS011;11557;50.884;4.322;2022-08-16T02:25:40;15.20;;;11.23;;
22780;SDS011;11557;50.884;4.322;2022-08-16T02:28:06;12.57;;;11.05;;
22780;SDS011;11557;50.884;4.322;2022-08-16T02:30:33;14.30;;;11.40;;
22780;SDS011;11557;50.884;4.322;2022-08-16T02:33:05;16.65;;;10.98;;
22780;SDS011;11557;50.884;4.322;2022-08-16T02:35:31;15.00;;;11.20;;
22780;SDS011;11557;50.884;4.322;2022-08-16T02:37:58;13.70;;;10.65;;
22780;SDS011;11557;50.884;4.322;2022-08-16T02:40:25;15.55;;;11.20;;
22780;SDS011;11557;50.884;4.322;2022-08-16T02:42:52;15.05;;;11.43;;
22780;SDS011;11557;50.884;4.322;2022-08-16T02:45:19;13.13;;;11.50;;
22780;SDS011;11557;50.884;4.322;2022-08-16T02:47:47;12.55;;;10.80;;
22780;SDS011;11557;50.884;4.322;2022-08-16T02:50:13;12.80;;;11.48;;
22780;SDS011;11557;50.884;4.322;2022-08-16T02:52:39;15.23;;;11.95;;
22780;SDS011;11557;50.884;4.322;2022-08-16T02:55:05;13.13;;;11.35;;
22780;SDS011;11557;50.884;4.322;2022-08-16T02:57:32;14.85;;;11.50;;
22780;SDS011;11557;50.884;4.322;2022-08-16T02:59:58;14.55;;;11.35;;
22780;SDS011;11557;50.884;4.322;2022-08-16T03:02:25;17.13;;;11.85;;
22780;SDS011;11557;50.884;4.322;2022-08-16T03:04:51;16.05;;;12.63;;
22780;SDS011;11557;50.884;4.322;2022-08-16T03:07:17;17.80;;;12.07;;
22780;SDS011;11557;50.884;4.322;2022-08-16T03:09:44;14.50;;;12.60;;
22780;SDS011;11557;50.884;4.322;2022-08-16T03:12:09;13.70;;;11.82;;
22780;SDS011;11557;50.884;4.322;2022-08-16T03:14:35;13.43;;;12.07;;
22780;SDS011;11557;50.884;4.322;2022-08-16T03:17:01;17.95;;;12.32;;
22780;SDS011;11557;50.884;4.322;2022-08-16T03:19:28;12.73;;;11.30;;
22780;SDS011;11557;50.884;4.322;2022-08-16T03:21:56;13.65;;;11.50;;
22780;SDS011;11557;50.884;4.322;2022-08-16T03:24:22;15.20;;;11.80;;
22780;SDS011;11557;50.884;4.322;2022-08-16T03:26:48;12.00;;;10.82;;
22780;SDS011;11557;50.884;4.322;2022-08-16T03:29:14;14.10;;;11.13;;
22780;SDS011;11557;50.884;4.322;2022-08-16T03:31:40;13.40;;;12.05;;
22780;SDS011;11557;50.884;4.322;2022-08-16T03:34:06;13.82;;;12.23;;
22780;SDS011;11557;50.884;4.322;2022-08-16T03:36:31;15.00;;;12.75;;
22780;SDS011;11557;50.884;4.322;2022-08-16T03:38:57;16.63;;;13.27;;
22780;SDS011;11557;50.884;4.322;2022-08-16T03:41:23;15.07;;;11.98;;
22780;SDS011;11557;50.884;4.322;2022-08-16T03:43:50;17.50;;;13.52;;
22780;SDS011;11557;50.884;4.322;2022-08-16T03:46:18;16.20;;;14.05;;
22780;SDS011;11557;50.884;4.322;2022-08-16T03:48:46;21.25;;;14.02;;
22780;SDS011;11557;50.884;4.322;2022-08-16T03:51:13;15.10;;;13.55;;
22780;SDS011;11557;50.884;4.322;2022-08-16T03:53:41;17.80;;;14.23;;
22780;SDS011;11557;50.884;4.322;2022-08-16T03:56:08;16.45;;;14.70;;
22780;SDS011;11557;50.884;4.322;2022-08-16T03:58:35;17.75;;;15.52;;
22780;SDS011;11557;50.884;4.322;2022-08-16T04:01:02;18.88;;;15.40;;
22780;SDS011;11557;50.884;4.322;2022-08-16T04:03:29;20.77;;;14.95;;
22780;SDS011;11557;50.884;4.322;2022-08-16T04:05:55;17.58;;;15.02;;
22780;SDS011;11557;50.884;4.322;2022-08-16T04:08:21;17.92;;;15.93;;
22780;SDS011;11557;50.884;4.322;2022-08-16T04:10:47;18.60;;;16.17;;
22780;SDS011;11557;50.884;4.322;2022-08-16T04:13:14;18.20;;;16.30;;
22780;SDS011;11557;50.884;4.322;2022-08-16T04:15:40;17.95;;;16.05;;
22780;SDS011;11557;50.884;4.322;2022-08-16T04:18:06;17.98;;;15.07;;
22780;SDS011;11557;50.884;4.322;2022-08-16T04:20:32;19.23;;;15.77;;
22780;SDS011;11557;50.884;4.322;2022-08-16T04:22:58;17.55;;;15.70;;
22780;SDS011;11557;50.884;4.322;2022-08-16T04:25:24;20.27;;;15.45;;
22780;SDS011;11557;50.884;4.322;2022-08-16T04:27:50;21.42;;;15.55;;
22780;SDS011;11557;50.884;4.322;2022-08-16T04:30:17;19.02;;;16.20;;
22780;SDS011;11557;50.884;4.322;2022-08-16T04:32:44;21.52;;;16.50;;
22780;SDS011;11557;50.884;4.322;2022-08-16T04:35:11;19.45;;;15.85;;
22780;SDS011;11557;50.884;4.322;2022-08-16T04:37:43;21.45;;;16.27;;
22780;SDS011;11557;50.884;4.322;2022-08-16T04:40:09;17.98;;;16.08;;
22780;SDS011;11557;50.884;4.322;2022-08-16T04:42:37;18.92;;;16.25;;
22780;SDS011;11557;50.884;4.322;2022-08-16T04:45:05;19.90;;;15.15;;
22780;SDS011;11557;50.884;4.322;2022-08-16T04:47:32;19.85;;;15.18;;
22780;SDS011;11557;50.884;4.322;2022-08-16T04:49:59;20.42;;;15.65;;
22780;SDS011;11557;50.884;4.322;2022-08-16T04:52:26;18.17;;;14.80;;
22780;SDS011;11557;50.884;4.322;2022-08-16T04:54:52;17.40;;;15.25;;
22780;SDS011;11557;50.884;4.322;2022-08-16T04:57:17;17.85;;;15.50;;
22780;SDS011;11557;50.884;4.322;2022-08-16T04:59:43;16.08;;;14.48;;
22780;SDS011;11557;50.884;4.322;2022-08-16T05:02:09;19.98;;;15.68;;
22780;SDS011;11557;50.884;4.322;2022-08-16T05:04:34;18.60;;;14.82;;
22780;SDS011;11557;50.884;4.322;2022-08-16T05:07:01;16.88;;;14.57;;
22780;SDS011;11557;50.884;4.322;2022-08-16T05:09:27;19.85;;;15.20;;
22780;SDS011;11557;50.884;4.322;2022-08-16T05:11:52;17.05;;;15.27;;
22780;SDS011;11557;50.884;4.322;2022-08-16T05:14:18;23.15;;;16.13;;
22780;SDS011;11557;50.884;4.322;2022-08-16T05:16:44;18.77;;;15.00;;
22780;SDS011;11557;50.884;4.322;2022-08-16T05:19:09;17.75;;;15.43;;
22780;SDS011;11557;50.884;4.322;2022-08-16T05:21:35;16.88;;;14.25;;
22780;SDS011;11557;50.884;4.322;2022-08-16T05:24:02;17.52;;;14.15;;
22780;SDS011;11557;50.884;4.322;2022-08-16T05:26:29;15.27;;;12.90;;
22780;SDS011;11557;50.884;4.322;2022-08-16T05:28:56;15.93;;;14.23;;
22780;SDS011;11557;50.884;4.322;2022-08-16T05:31:23;16.45;;;14.68;;
22780;SDS011;11557;50.884;4.322;2022-08-16T05:33:52;18.40;;;15.57;;
22780;SDS011;11557;50.884;4.322;2022-08-16T05:36:18;19.30;;;15.70;;
22780;SDS011;11557;50.884;4.322;2022-08-16T05:38:44;21.85;;;15.40;;
22780;SDS011;11557;50.884;4.322;2022-08-16T05:41:10;19.10;;;15.57;;
22780;SDS011;11557;50.884;4.322;2022-08-16T05:43:36;17.83;;;14.45;;
22780;SDS011;11557;50.884;4.322;2022-08-16T05:46:02;16.58;;;14.77;;
22780;SDS011;11557;50.884;4.322;2022-08-16T05:48:28;22.30;;;14.48;;
22780;SDS011;11557;50.884;4.322;2022-08-16T05:50:55;19.88;;;14.10;;
22780;SDS011;11557;50.884;4.322;2022-08-16T05:53:21;18.60;;;14.50;;
22780;SDS011;11557;50.884;4.322;2022-08-16T05:55:47;16.25;;;12.45;;
22780;SDS011;11557;50.884;4.322;2022-08-16T05:58:13;19.17;;;14.35;;
22780;SDS011;11557;50.884;4.322;2022-08-16T06:00:39;17.80;;;15.10;;
22780;SDS011;11557;50.884;4.322;2022-08-16T06:03:04;23.88;;;15.30;;
22780;SDS011;11557;50.884;4.322;2022-08-16T06:05:30;17.75;;;13.90;;
22780;SDS011;11557;50.884;4.322;2022-08-16T06:07:55;19.10;;;14.13;;
22780;SDS011;11557;50.884;4.322;2022-08-16T06:10:21;25.02;;;16.17;;
22780;SDS011;11557;50.884;4.322;2022-08-16T06:12:47;23.05;;;13.82;;
22780;SDS011;11557;50.884;4.322;2022-08-16T06:15:14;18.85;;;14.43;;
22780;SDS011;11557;50.884;4.322;2022-08-16T06:17:41;20.38;;;14.02;;
22780;SDS011;11557;50.884;4.322;2022-08-16T06:20:08;17.05;;;13.57;;
22780;SDS011;11557;50.884;4.322;2022-08-16T06:22:38;19.13;;;13.98;;
22780;SDS011;11557;50.884;4.322;2022-08-16T06:25:03;17.48;;;14.13;;
22780;SDS011;11557;50.884;4.322;2022-08-16T06:27:29;17.30;;;14.20;;
22780;SDS011;11557;50.884;4.322;2022-08-16T06:29:55;17.55;;;13.68;;
22780;SDS011;11557;50.884;4.322;2022-08-16T06:32:21;21.55;;;13.05;;
22780;SDS011;11557;50.884;4.322;2022-08-16T06:34:46;20.88;;;13.20;;
22780;SDS011;11557;50.884;4.322;2022-08-16T06:37:12;18.38;;;13.07;;
22780;SDS011;11557;50.884;4.322;2022-08-16T06:39:37;21.58;;;13.30;;
22780;SDS011;11557;50.884;4.322;2022-08-16T06:42:03;15.48;;;12.32;;
22780;SDS011;11557;50.884;4.322;2022-08-16T06:44:29;18.70;;;12.57;;
22780;SDS011;11557;50.884;4.322;2022-08-16T06:46:55;15.20;;;12.30;;
22780;SDS011;11557;50.884;4.322;2022-08-16T06:49:20;16.73;;;11.73;;
22780;SDS011;11557;50.884;4.322;2022-08-16T06:51:46;18.40;;;11.93;;
22780;SDS011;11557;50.884;4.322;2022-08-16T06:54:11;15.93;;;12.02;;
22780;SDS011;11557;50.884;4.322;2022-08-16T06:56:37;16.63;;;13.68;;
22780;SDS011;11557;50.884;4.322;2022-08-16T06:59:03;16.70;;;11.73;;
22780;SDS011;11557;50.884;4.322;2022-08-16T07:01:28;15.15;;;12.07;;
22780;SDS011;11557;50.884;4.322;2022-08-16T07:03:54;14.57;;;11.52;;
22780;SDS011;11557;50.884;4.322;2022-08-16T07:06:20;18.60;;;12.50;;
22780;SDS011;11557;50.884;4.322;2022-08-16T07:08:46;18.30;;;11.30;;
22780;SDS011;11557;50.884;4.322;2022-08-16T07:11:13;12.30;;;10.82;;
22780;SDS011;11557;50.884;4.322;2022-08-16T07:13:40;15.68;;;9.80;;
22780;SDS011;11557;50.884;4.322;2022-08-16T07:16:06;17.48;;;9.48;;
22780;SDS011;11557;50.884;4.322;2022-08-16T07:18:38;20.85;;;10.20;;
22780;SDS011;11557;50.884;4.322;2022-08-16T07:21:06;12.20;;;8.80;;
22780;SDS011;11557;50.884;4.322;2022-08-16T07:23:32;14.68;;;9.10;;
22780;SDS011;11557;50.884;4.322;2022-08-16T07:25:58;16.60;;;8.50;;
22780;SDS011;11557;50.884;4.322;2022-08-16T07:28:24;15.52;;;8.38;;
22780;SDS011;11557;50.884;4.322;2022-08-16T07:30:50;11.43;;;7.30;;
22780;SDS011;11557;50.884;4.322;2022-08-16T07:33:15;15.73;;;8.65;;
22780;SDS011;11557;50.884;4.322;2022-08-16T07:35:42;14.75;;;7.65;;
22780;SDS011;11557;50.884;4.322;2022-08-16T07:38:08;14.00;;;8.15;;
22780;SDS011;11557;50.884;4.322;2022-08-16T07:40:34;18.17;;;8.25;;
22780;SDS011;11557;50.884;4.322;2022-08-16T07:43:01;12.13;;;7.32;;
22780;SDS011;11557;50.884;4.322;2022-08-16T07:45:35;12.57;;;7.75;;
22780;SDS011;11557;50.884;4.322;2022-08-16T07:48:01;15.98;;;7.20;;
22780;SDS011;11557;50.884;4.322;2022-08-16T07:50:26;13.52;;;7.05;;
22780;SDS011;11557;50.884;4.322;2022-08-16T07:52:52;15.35;;;7.63;;
22780;SDS011;11557;50.884;4.322;2022-08-16T07:55:18;13.27;;;7.80;;
22780;SDS011;11557;50.884;4.322;2022-08-16T07:57:44;11.95;;;6.95;;
22780;SDS011;11557;50.884;4.322;2022-08-16T08:00:10;8.05;;;7.00;;
22780;SDS011;11557;50.884;4.322;2022-08-16T08:02:37;12.45;;;6.93;;
22780;SDS011;11557;50.884;4.322;2022-08-16T08:05:03;13.25;;;7.05;;
22780;SDS011;11557;50.884;4.322;2022-08-16T08:07:29;14.73;;;6.35;;
22780;SDS011;11557;50.884;4.322;2022-08-16T08:09:55;12.25;;;6.10;;
22780;SDS011;11557;50.884;4.322;2022-08-16T08:12:22;11.65;;;6.03;;
22780;SDS011;11557;50.884;4.322;2022-08-16T08:14:48;11.82;;;6.00;;
22780;SDS011;11557;50.884;4.322;2022-08-16T08:17:14;13.48;;;6.00;;
22780;SDS011;11557;50.884;4.322;2022-08-16T08:19:41;11.50;;;5.15;;
22780;SDS011;11557;50.884;4.322;2022-08-16T08:22:07;10.13;;;5.32;;
22780;SDS011;11557;50.884;4.322;2022-08-16T08:24:33;12.95;;;5.00;;
22780;SDS011;11557;50.884;4.322;2022-08-16T08:27:03;9.18;;;4.60;;
22780;SDS011;11557;50.884;4.322;2022-08-16T08:29:31;9.93;;;4.50;;
22780;SDS011;11557;50.884;4.322;2022-08-16T08:31:57;8.10;;;4.05;;
22780;SDS011;11557;50.884;4.322;2022-08-16T08:34:25;7.38;;;3.97;;
22780;SDS011;11557;50.884;4.322;2022-08-16T08:36:52;12.45;;;5.13;;
22780;SDS011;11557;50.884;4.322;2022-08-16T08:39:18;8.45;;;4.00;;
22780;SDS011;11557;50.884;4.322;2022-08-16T08:41:44;7.80;;;3.95;;
22780;SDS011;11557;50.884;4.322;2022-08-16T08:44:11;11.00;;;3.97;;
22780;SDS011;11557;50.884;4.322;2022-08-16T08:46:37;6.22;;;3.83;;
22780;SDS011;11557;50.884;4.322;2022-08-16T08:49:03;11.18;;;3.65;;
22780;SDS011;11557;50.884;4.322;2022-08-16T08:51:31;11.55;;;4.05;;
22780;SDS011;11557;50.884;4.322;2022-08-16T08:53:57;13.73;;;4.13;;
22780;SDS011;11557;50.884;4.322;2022-08-16T08:56:23;8.70;;;5.35;;
22780;SDS011;11557;50.884;4.322;2022-08-16T08:58:48;12.80;;;4.30;;
22780;SDS011;11557;50.884;4.322;2022-08-16T09:01:15;8.20;;;4.38;;
22780;SDS011;11557;50.884;4.322;2022-08-16T09:03:46;6.82;;;3.50;;
22780;SDS011;11557;50.884;4.322;2022-08-16T09:06:12;8.55;;;4.20;;
22780;SDS011;11557;50.884;4.322;2022-08-16T09:08:38;6.05;;;4.05;;
22780;SDS011;11557;50.884;4.322;2022-08-16T09:11:04;7.18;;;3.58;;
22780;SDS011;11557;50.884;4.322;2022-08-16T09:13:29;8.15;;;3.97;;
22780;SDS011;11557;50.884;4.322;2022-08-16T09:15:57;6.47;;;4.95;;
22780;SDS011;11557;50.884;4.322;2022-08-16T09:18:22;9.45;;;4.45;;
22780;SDS011;11557;50.884;4.322;2022-08-16T09:20:49;10.73;;;4.45;;
22780;SDS011;11557;50.884;4.322;2022-08-16T09:23:20;14.65;;;4.15;;
22780;SDS011;11557;50.884;4.322;2022-08-16T09:25:46;7.10;;;4.03;;
22780;SDS011;11557;50.884;4.322;2022-08-16T09:28:11;5.03;;;3.65;;
22780;SDS011;11557;50.884;4.322;2022-08-16T09:30:37;7.15;;;3.63;;
22780;SDS011;11557;50.884;4.322;2022-08-16T09:33:03;4.53;;;3.60;;
22780;SDS011;11557;50.884;4.322;2022-08-16T09:35:31;6.53;;;3.88;;
22780;SDS011;11557;50.884;4.322;2022-08-16T09:37:56;8.93;;;3.80;;
22780;SDS011;11557;50.884;4.322;2022-08-16T09:40:22;7.85;;;3.60;;
22780;SDS011;11557;50.884;4.322;2022-08-16T09:42:49;11.10;;;3.90;;
22780;SDS011;11557;50.884;4.322;2022-08-16T09:45:18;10.55;;;4.25;;
22780;SDS011;11557;50.884;4.322;2022-08-16T09:47:44;7.93;;;3.80;;
22780;SDS011;11557;50.884;4.322;2022-08-16T09:50:12;19.52;;;4.28;;
22780;SDS011;11557;50.884;4.322;2022-08-16T09:52:38;6.57;;;3.80;;
22780;SDS011;11557;50.884;4.322;2022-08-16T09:55:05;5.50;;;3.28;;
22780;SDS011;11557;50.884;4.322;2022-08-16T09:57:32;6.20;;;3.90;;
22780;SDS011;11557;50.884;4.322;2022-08-16T09:59:58;4.85;;;3.60;;
22780;SDS011;11557;50.884;4.322;2022-08-16T10:02:27;7.03;;;3.85;;
22780;SDS011;11557;50.884;4.322;2022-08-16T10:04:54;5.35;;;3.50;;
22780;SDS011;11557;50.884;4.322;2022-08-16T10:07:22;7.53;;;3.63;;
22780;SDS011;11557;50.884;4.322;2022-08-16T10:09:49;5.72;;;4.32;;
22780;SDS011;11557;50.884;4.322;2022-08-16T10:12:14;5.80;;;4.57;;
22780;SDS011;11557;50.884;4.322;2022-08-16T10:17:24;9.10;;;4.22;;
22780;SDS011;11557;50.884;4.322;2022-08-16T10:19:50;4.47;;;4.07;;
22780;SDS011;11557;50.884;4.322;2022-08-16T10:22:17;9.93;;;4.32;;
22780;SDS011;11557;50.884;4.322;2022-08-16T10:24:42;5.43;;;4.32;;
22780;SDS011;11557;50.884;4.322;2022-08-16T10:27:08;6.38;;;4.35;;
22780;SDS011;11557;50.884;4.322;2022-08-16T10:29:35;7.72;;;4.38;;
22780;SDS011;11557;50.884;4.322;2022-08-16T10:32:01;8.75;;;4.45;;
22780;SDS011;11557;50.884;4.322;2022-08-16T10:34:27;8.48;;;4.35;;
22780;SDS011;11557;50.884;4.322;2022-08-16T10:36:53;7.78;;;4.20;;
22780;SDS011;11557;50.884;4.322;2022-08-16T10:39:18;8.18;;;4.28;;
22780;SDS011;11557;50.884;4.322;2022-08-16T10:41:44;9.45;;;4.47;;
22780;SDS011;11557;50.884;4.322;2022-08-16T10:44:10;9.43;;;4.72;;
22780;SDS011;11557;50.884;4.322;2022-08-16T10:46:38;10.15;;;4.80;;
22780;SDS011;11557;50.884;4.322;2022-08-16T10:49:04;6.68;;;4.70;;
22780;SDS011;11557;50.884;4.322;2022-08-16T10:51:30;10.45;;;5.10;;
22780;SDS011;11557;50.884;4.322;2022-08-16T10:53:56;8.07;;;4.93;;
22780;SDS011;11557;50.884;4.322;2022-08-16T10:56:22;14.02;;;4.63;;
22780;SDS011;11557;50.884;4.322;2022-08-16T10:58:49;7.82;;;4.10;;
22780;SDS011;11557;50.884;4.322;2022-08-16T11:01:15;5.38;;;4.60;;
22780;SDS011;11557;50.884;4.322;2022-08-16T11:03:41;8.00;;;5.03;;
22780;SDS011;11557;50.884;4.322;2022-08-16T11:06:07;10.63;;;5.25;;
22780;SDS011;11557;50.884;4.322;2022-08-16T11:08:34;6.75;;;4.95;;
22780;SDS011;11557;50.884;4.322;2022-08-16T11:11:01;9.32;;;5.88;;
22780;SDS011;11557;50.884;4.322;2022-08-16T11:13:28;10.38;;;5.38;;
22780;SDS011;11557;50.884;4.322;2022-08-16T11:15:54;6.30;;;4.80;;
22780;SDS011;11557;50.884;4.322;2022-08-16T11:18:25;12.85;;;5.20;;
22780;SDS011;11557;50.884;4.322;2022-08-16T11:20:53;12.85;;;5.55;;
22780;SDS011;11557;50.884;4.322;2022-08-16T11:23:20;12.20;;;5.30;;
22780;SDS011;11557;50.884;4.322;2022-08-16T11:25:46;8.32;;;4.65;;
22780;SDS011;11557;50.884;4.322;2022-08-16T11:28:12;9.73;;;5.80;;
22780;SDS011;11557;50.884;4.322;2022-08-16T11:30:38;9.90;;;5.90;;
22780;SDS011;11557;50.884;4.322;2022-08-16T11:33:04;9.95;;;5.88;;
22780;SDS011;11557;50.884;4.322;2022-08-16T11:35:31;11.73;;;5.85;;
22780;SDS011;11557;50.884;4.322;2022-08-16T11:37:59;8.82;;;5.80;;
22780;SDS011;11557;50.884;4.322;2022-08-16T11:40:31;10.77;;;5.90;;
22780;SDS011;11557;50.884;4.322;2022-08-16T11:43:02;7.50;;;5.10;;
22780;SDS011;11557;50.884;4.322;2022-08-16T11:45:28;7.50;;;4.85;;
22780;SDS011;11557;50.884;4.322;2022-08-16T11:47:54;9.50;;;5.90;;
22780;SDS011;11557;50.884;4.322;2022-08-16T11:50:20;6.55;;;5.22;;
22780;SDS011;11557;50.884;4.322;2022-08-16T11:52:47;8.55;;;5.18;;
22780;SDS011;11557;50.884;4.322;2022-08-16T11:55:13;5.72;;;4.93;;
22780;SDS011;11557;50.884;4.322;2022-08-16T11:57:38;8.07;;;5.13;;
22780;SDS011;11557;50.884;4.322;2022-08-16T12:00:06;8.15;;;4.82;;
22780;SDS011;11557;50.884;4.322;2022-08-16T12:02:35;10.38;;;4.90;;
22780;SDS011;11557;50.884;4.322;2022-08-16T12:05:01;6.72;;;5.15;;
22780;SDS011;11557;50.884;4.322;2022-08-16T12:07:28;7.75;;;4.75;;
22780;SDS011;11557;50.884;4.322;2022-08-16T12:09:54;12.00;;;4.88;;
22780;SDS011;11557;50.884;4.322;2022-08-16T12:12:20;7.18;;;4.50;;
22780;SDS011;11557;50.884;4.322;2022-08-16T12:14:46;6.70;;;4.97;;
22780;SDS011;11557;50.884;4.322;2022-08-16T12:17:12;8.07;;;4.43;;
22780;SDS011;11557;50.884;4.322;2022-08-16T12:19:38;6.53;;;4.85;;
22780;SDS011;11557;50.884;4.322;2022-08-16T12:22:05;8.13;;;4.68;;
22780;SDS011;11557;50.884;4.322;2022-08-16T12:24:31;6.75;;;4.28;;
22780;SDS011;11557;50.884;4.322;2022-08-16T12:26:58;8.82;;;4.93;;
22780;SDS011;11557;50.884;4.322;2022-08-16T12:29:24;13.30;;;5.25;;
22780;SDS011;11557;50.884;4.322;2022-08-16T12:31:50;7.22;;;4.50;;
22780;SDS011;11557;50.884;4.322;2022-08-16T12:34:17;6.07;;;4.35;;
22780;SDS011;11557;50.884;4.322;2022-08-16T12:36:43;7.15;;;4.55;;
22780;SDS011;11557;50.884;4.322;2022-08-16T12:39:10;9.60;;;5.03;;
22780;SDS011;11557;50.884;4.322;2022-08-16T12:41:38;9.27;;;4.03;;
22780;SDS011;11557;50.884;4.322;2022-08-16T12:44:04;5.95;;;4.18;;
22780;SDS011;11557;50.884;4.322;2022-08-16T12:46:30;7.80;;;4.03;;
22780;SDS011;11557;50.884;4.322;2022-08-16T12:48:56;3.95;;;3.65;;
22780;SDS011;11557;50.884;4.322;2022-08-16T12:51:30;7.55;;;4.03;;
22780;SDS011;11557;50.884;4.322;2022-08-16T12:53:59;7.20;;;3.50;;
22780;SDS011;11557;50.884;4.322;2022-08-16T12:56:27;8.52;;;3.63;;
22780;SDS011;11557;50.884;4.322;2022-08-16T12:58:55;11.27;;;4.28;;
22780;SDS011;11557;50.884;4.322;2022-08-16T13:01:23;7.43;;;3.92;;
22780;SDS011;11557;50.884;4.322;2022-08-16T13:03:54;5.97;;;3.95;;
22780;SDS011;11557;50.884;4.322;2022-08-16T13:06:22;8.95;;;3.95;;
22780;SDS011;11557;50.884;4.322;2022-08-16T13:08:48;8.15;;;4.07;;
22780;SDS011;11557;50.884;4.322;2022-08-16T13:11:16;7.30;;;4.05;;
22780;SDS011;11557;50.884;4.322;2022-08-16T13:13:46;7.10;;;3.83;;
22780;SDS011;11557;50.884;4.322;2022-08-16T13:16:11;5.35;;;3.70;;
22780;SDS011;11557;50.884;4.322;2022-08-16T13:18:37;7.32;;;4.07;;
22780;SDS011;11557;50.884;4.322;2022-08-16T13:21:03;9.25;;;4.35;;
22780;SDS011;11557;50.884;4.322;2022-08-16T13:23:30;8.55;;;4.15;;
22780;SDS011;11557;50.884;4.322;2022-08-16T13:25:56;6.03;;;4.28;;
22780;SDS011;11557;50.884;4.322;2022-08-16T13:28:22;7.68;;;3.97;;
22780;SDS011;11557;50.884;4.322;2022-08-16T13:30:49;4.57;;;3.88;;
22780;SDS011;11557;50.884;4.322;2022-08-16T13:33:19;7.82;;;4.60;;
22780;SDS011;11557;50.884;4.322;2022-08-16T13:35:50;7.03;;;4.43;;
22780;SDS011;11557;50.884;4.322;2022-08-16T13:38:17;5.30;;;3.72;;
22780;SDS011;11557;50.884;4.322;2022-08-16T13:40:43;5.88;;;3.80;;
22780;SDS011;11557;50.884;4.322;2022-08-16T13:43:09;5.25;;;3.78;;
22780;SDS011;11557;50.884;4.322;2022-08-16T13:45:35;4.28;;;3.53;;
22780;SDS011;11557;50.884;4.322;2022-08-16T13:48:01;11.48;;;4.25;;
22780;SDS011;11557;50.884;4.322;2022-08-16T13:50:27;8.75;;;4.07;;
22780;SDS011;11557;50.884;4.322;2022-08-16T13:52:53;5.25;;;3.83;;
22780;SDS011;11557;50.884;4.322;2022-08-16T13:55:19;4.85;;;3.80;;
22780;SDS011;11557;50.884;4.322;2022-08-16T13:57:46;5.47;;;3.75;;
22780;SDS011;11557;50.884;4.322;2022-08-16T14:00:12;4.03;;;3.63;;
22780;SDS011;11557;50.884;4.322;2022-08-16T14:02:39;9.27;;;4.00;;
22780;SDS011;11557;50.884;4.322;2022-08-16T14:05:05;12.27;;;3.80;;
22780;SDS011;11557;50.884;4.322;2022-08-16T14:07:31;10.48;;;4.15;;
22780;SDS011;11557;50.884;4.322;2022-08-16T14:09:58;7.40;;;4.80;;
22780;SDS011;11557;50.884;4.322;2022-08-16T14:12:25;5.55;;;4.35;;
22780;SDS011;11557;50.884;4.322;2022-08-16T14:14:54;8.43;;;4.30;;
22780;SDS011;11557;50.884;4.322;2022-08-16T14:17:20;9.27;;;4.28;;
22780;SDS011;11557;50.884;4.322;2022-08-16T14:19:47;4.63;;;3.92;;
22780;SDS011;11557;50.884;4.322;2022-08-16T14:22:21;7.22;;;4.22;;
22780;SDS011;11557;50.884;4.322;2022-08-16T14:24:49;6.38;;;4.47;;
22780;SDS011;11557;50.884;4.322;2022-08-16T14:27:17;4.75;;;3.85;;
22780;SDS011;11557;50.884;4.322;2022-08-16T14:29:47;5.82;;;4.30;;
22780;SDS011;11557;50.884;4.322;2022-08-16T14:32:15;5.45;;;4.32;;
22780;SDS011;11557;50.884;4.322;2022-08-16T14:34:42;13.65;;;4.10;;
22780;SDS011;11557;50.884;4.322;2022-08-16T14:37:09;7.65;;;3.90;;
22780;SDS011;11557;50.884;4.322;2022-08-16T14:39:35;5.53;;;3.60;;
22780;SDS011;11557;50.884;4.322;2022-08-16T14:42:11;9.18;;;3.90;;